Time;durP1;ratioP1;P1;durP2;ratioP2;P2;SDS_P1;SDS_P2;PMS_P1;PMS_P2;Temp;Humidity;BMP_temperature;BMP_pressure;BME280_temperature;BME280_humidity;BME280_pressure;Samples;Min_cycle;Max_cycle;Signal;HPM_P1;HPM_P2
2024/01/03 00:03:03;;;;;;;135.38;10.63;;;;;;;2.62;100.00;99360.50;10413280;28;20046;-76
2024/01/03 00:08:14;;;;;;;114.82;10.90;;;;;;;2.66;100.00;99361.88;10413169;28;20382;-75
2024/01/03 00:13:32;;;;;;;37.65;8.65;;;;;;;2.69;100.00;99335.38;10415063;28;20045;-75
2024/01/03 00:18:39;;;;;;;10.60;7.22;;;;;;;2.66;100.00;99348.78;10420330;28;20072;-76
2024/01/03 00:23:49;;;;;;;9.30;6.97;;;;;;;2.53;100.00;99316.78;10421277;28;20041;-75
2024/01/03 00:28:51;;;;;;;13.93;7.82;;;;;;;2.72;100.00;99327.22;10420521;28;20149;-75
2024/01/03 00:33:52;;;;;;;113.88;9.77;;;;;;;2.50;100.00;99302.16;10420960;28;20095;-76
2024/01/03 00:38:52;;;;;;;65.03;8.80;;;;;;;2.72;100.00;99326.38;10418842;28;20482;-76
2024/01/03 00:43:53;;;;;;;103.55;9.90;;;;;;;2.41;100.00;99276.78;10419768;28;20137;-76
2024/01/03 00:48:54;;;;;;;106.25;9.77;;;;;;;2.67;100.00;99295.34;10419298;28;20038;-76
2024/01/03 00:53:55;;;;;;;66.97;9.38;;;;;;;2.63;100.00;99280.03;10420262;28;20037;-77
2024/01/03 00:58:56;;;;;;;60.92;9.52;;;;;;;2.29;100.00;99196.69;10420046;28;20518;-77
2024/01/03 01:03:57;;;;;;;40.42;10.68;;;;;;;2.07;100.00;99161.19;10419563;28;20041;-76
2024/01/03 01:08:59;;;;;;;29.25;9.32;;;;;;;2.18;100.00;99202.09;10418981;28;20175;-76
2024/01/03 01:13:59;;;;;;;14.07;8.32;;;;;;;2.31;100.00;99220.13;10418816;28;20041;-76
2024/01/03 01:19:00;;;;;;;32.50;9.25;;;;;;;2.29;100.00;99215.03;10419507;28;20041;-76
2024/01/03 01:24:01;;;;;;;12.68;9.02;;;;;;;2.31;100.00;99199.19;10417830;28;20076;-76
2024/01/03 01:29:02;;;;;;;14.73;9.43;;;;;;;2.36;100.00;99207.41;10418652;28;20045;-76
2024/01/03 01:34:03;;;;;;;14.25;9.90;;;;;;;2.35;100.00;99193.50;10418070;28;20037;-76
2024/01/03 01:39:04;;;;;;;12.20;8.82;;;;;;;2.04;100.00;99135.28;10416817;28;20501;-76
2024/01/03 01:44:05;;;;;;;23.92;10.35;;;;;;;2.29;100.00;99170.47;10417286;28;20045;-76
2024/01/03 01:49:07;;;;;;;46.38;10.75;;;;;;;2.00;100.00;99149.59;10417941;28;20072;-76
2024/01/03 01:54:08;;;;;;;20.52;9.65;;;;;;;1.94;100.00;99122.19;10417038;28;20041;-76
2024/01/03 01:59:10;;;;;;;15.02;10.13;;;;;;;2.03;100.00;99165.91;10417228;28;20540;-76
2024/01/03 02:04:11;;;;;;;19.42;10.73;;;;;;;2.17;100.00;99169.81;10418014;28;20099;-76
2024/01/03 02:09:12;;;;;;;16.00;11.20;;;;;;;1.84;100.00;99184.25;10417185;28;20033;-76
2024/01/03 02:14:14;;;;;;;18.52;11.73;;;;;;;2.12;100.00;99289.13;10416477;28;20046;-76
2024/01/03 02:19:14;;;;;;;26.48;12.27;;;;;;;2.17;100.00;99316.56;10416423;28;20041;-77
2024/01/03 02:24:15;;;;;;;20.77;10.57;;;;;;;1.98;100.00;99306.09;10416384;28;20045;-76
2024/01/03 02:29:16;;;;;;;14.20;9.32;;;;;;;1.80;100.00;99292.88;10415854;28;20044;-76
2024/01/03 02:34:17;;;;;;;13.25;8.98;;;;;;;1.98;100.00;99332.28;10416302;28;20038;-75
2024/01/03 02:39:17;;;;;;;13.15;8.90;;;;;;;1.87;100.00;99319.31;10415941;28;20068;-76
2024/01/03 02:44:20;;;;;;;11.18;7.40;;;;;;;1.78;100.00;99320.97;10415099;28;20049;-75
2024/01/03 02:49:21;;;;;;;10.85;7.38;;;;;;;1.88;100.00;99358.47;10415605;28;20041;-76
2024/01/03 02:54:22;;;;;;;9.90;6.28;;;;;;;1.91;100.00;99381.75;10415333;28;20124;-76
2024/01/03 02:59:24;;;;;;;8.43;5.95;;;;;;;1.92;100.00;99385.22;10415099;28;20057;-76
2024/01/03 03:04:25;;;;;;;9.00;5.70;;;;;;;1.96;100.00;99407.56;10414373;28;20460;-77
2024/01/03 03:09:25;;;;;;;6.63;5.20;;;;;;;1.78;100.00;99363.69;10414854;28;20044;-76
2024/01/03 03:14:26;;;;;;;7.22;4.75;;;;;;;1.96;100.00;99356.00;10414068;28;20091;-75
2024/01/03 03:19:27;;;;;;;7.13;4.97;;;;;;;1.41;100.00;99269.28;10414643;28;20041;-75
2024/01/03 03:24:28;;;;;;;7.00;4.78;;;;;;;2.01;100.00;99345.13;10414486;28;20049;-76
2024/01/03 03:29:29;;;;;;;6.75;4.68;;;;;;;2.20;100.00;99367.84;10413318;28;20033;-76
2024/01/03 03:34:30;;;;;;;6.57;4.45;;;;;;;2.15;100.00;99401.50;10413475;28;20069;-75
2024/01/03 03:39:30;;;;;;;5.47;4.03;;;;;;;2.05;100.00;99480.91;10414184;28;20053;-76
2024/01/03 03:44:31;;;;;;;6.68;5.07;;;;;;;1.90;100.00;99486.66;10412680;28;20513;-75
2024/01/03 03:49:32;;;;;;;7.13;5.20;;;;;;;1.53;100.00;99455.81;10412567;28;20041;-77
2024/01/03 03:54:33;;;;;;;7.63;4.75;;;;;;;1.85;100.00;99543.84;10412333;28;20041;-76
2024/01/03 03:59:34;;;;;;;7.25;5.10;;;;;;;1.82;100.00;99573.75;10412838;28;20044;-76
2024/01/03 04:04:34;;;;;;;12.40;5.57;;;;;;;1.88;100.00;99603.81;10412626;28;20052;-76
2024/01/03 04:09:36;;;;;;;6.57;5.00;;;;;;;1.68;100.00;99577.53;10412408;28;20409;-76
2024/01/03 04:14:37;;;;;;;7.60;5.15;;;;;;;2.02;100.00;99617.41;10411646;28;20041;-76
2024/01/03 04:19:38;;;;;;;7.47;4.75;;;;;;;2.25;100.00;99640.81;10410179;28;20494;-76
2024/01/03 04:24:39;;;;;;;6.55;4.97;;;;;;;2.23;100.00;99642.72;10411303;28;20095;-77
2024/01/03 04:29:40;;;;;;;7.10;5.22;;;;;;;1.85;100.00;99598.84;10410917;28;20041;-76
2024/01/03 04:34:41;;;;;;;7.70;5.00;;;;;;;2.15;100.00;99647.78;10413095;28;20045;-76
2024/01/03 04:39:42;;;;;;;9.73;5.15;;;;;;;1.94;100.00;99614.59;10413102;28;20068;-76
2024/01/03 04:44:44;;;;;;;7.28;4.47;;;;;;;2.23;100.00;99677.63;10411896;28;20056;-74
2024/01/03 04:49:45;;;;;;;8.27;4.90;;;;;;;2.23;100.00;99682.03;10411760;28;20050;-74
2024/01/03 04:54:46;;;;;;;35.33;6.32;;;;;;;2.24;100.00;99694.16;10405587;28;20045;-75
2024/01/03 04:59:47;;;;;;;9.43;5.60;;;;;;;2.21;100.00;99715.38;10377814;28;20176;-75
2024/01/03 05:04:48;;;;;;;11.38;5.95;;;;;;;2.03;100.00;99704.66;10399634;28;20542;-74
2024/01/03 05:09:49;;;;;;;16.67;5.95;;;;;;;2.07;100.00;99721.00;10387427;28;20498;-74
2024/01/03 05:14:50;;;;;;;7.70;5.45;;;;;;;2.11;100.00;99746.78;10377839;28;20042;-75
2024/01/03 05:19:51;;;;;;;4.55;2.88;;;;;;;2.72;100.00;99780.94;10391235;28;20048;-74
2024/01/03 05:24:54;;;;;;;1.50;0.57;;;;;;;3.51;100.00;99792.47;10401689;28;20096;-74
2024/01/03 05:29:54;;;;;;;0.73;0.30;;;;;;;4.06;100.00;99790.94;10385995;28;20050;-75
2024/01/03 05:34:55;;;;;;;0.22;0.10;;;;;;;3.99;100.00;99749.63;10377496;28;20042;-75
2024/01/03 05:39:56;;;;;;;0.25;0.10;;;;;;;4.39;100.00;99796.72;10390382;28;20080;-75
2024/01/03 05:44:56;;;;;;;0.20;0.00;;;;;;;4.42;100.00;99821.91;10410694;28;20041;-75
2024/01/03 05:49:58;;;;;;;0.17;0.08;;;;;;;4.35;100.00;99817.22;10411947;28;20088;-75
2024/01/03 05:55:00;;;;;;;0.45;0.10;;;;;;;4.15;100.00;99806.88;10393625;28;20046;-75
2024/01/03 06:00:03;;;;;;;0.43;0.00;;;;;;;3.98;100.00;99782.09;10399162;28;20076;-75
2024/01/03 06:05:04;;;;;;;0.17;0.00;;;;;;;4.27;100.00;99818.88;10407205;28;20140;-75
2024/01/03 06:10:05;;;;;;;0.10;0.00;;;;;;;4.37;100.00;99829.38;10405326;28;20464;-73
2024/01/03 06:15:07;;;;;;;0.70;0.05;;;;;;;4.29;100.00;99835.38;10401124;28;20128;-74
2024/01/03 06:20:08;;;;;;;0.17;0.08;;;;;;;4.29;100.00;99824.84;10410375;28;20049;-76
2024/01/03 06:25:09;;;;;;;0.55;0.10;;;;;;;3.93;100.00;99787.78;10400132;28;20056;-75
2024/01/03 06:30:10;;;;;;;0.10;0.00;;;;;;;4.41;100.00;99865.78;10401283;28;20045;-72
2024/01/03 06:35:11;;;;;;;0.20;0.05;;;;;;;4.43;100.00;99863.00;10383676;28;20097;-75
2024/01/03 06:40:13;;;;;;;0.22;0.00;;;;;;;4.67;100.00;99881.00;10378846;28;20517;-76
2024/01/03 06:45:14;;;;;;;0.32;0.10;;;;;;;4.87;100.00;99876.50;10402519;28;20091;-73
2024/01/03 06:50:15;;;;;;;0.38;0.10;;;;;;;5.14;100.00;99881.00;10403968;28;20030;-74
2024/01/03 06:55:16;;;;;;;0.40;0.10;;;;;;;5.35;100.00;99888.66;10406058;28;20432;-74
2024/01/03 07:00:17;;;;;;;2.17;0.10;;;;;;;5.46;100.00;99873.50;10413149;28;20052;-70
2024/01/03 07:05:18;;;;;;;2.45;0.10;;;;;;;5.61;100.00;99879.09;10400762;28;20115;-76
2024/01/03 07:10:19;;;;;;;0.00;0.00;;;;;;;5.66;100.00;99873.41;10397191;28;20042;-77
2024/01/03 07:15:20;;;;;;;0.20;0.10;;;;;;;5.25;100.00;99870.28;10398347;28;20105;-73
2024/01/03 07:20:21;;;;;;;0.43;0.10;;;;;;;5.51;100.00;99911.78;10394819;28;20041;-77
2024/01/03 07:25:22;;;;;;;0.30;0.10;;;;;;;5.42;100.00;99877.41;10399001;28;20052;-79
2024/01/03 07:30:25;;;;;;;0.63;0.20;;;;;;;5.22;100.00;99857.41;10392020;28;20046;-77
2024/01/03 07:35:29;;;;;;;0.77;0.25;;;;;;;5.00;100.00;99827.03;10402004;28;20084;-75
2024/01/03 07:40:31;;;;;;;0.63;0.27;;;;;;;4.96;100.00;99867.75;10390712;28;20033;-79
2024/01/03 07:45:31;;;;;;;1.08;0.30;;;;;;;5.05;100.00;99866.88;10394990;28;20053;-75
2024/01/03 07:50:32;;;;;;;1.20;0.35;;;;;;;5.17;100.00;99885.97;10411438;28;20038;-76
2024/01/03 07:55:33;;;;;;;1.13;0.30;;;;;;;4.84;100.00;99753.94;10412285;28;20043;-72
2024/01/03 08:00:34;;;;;;;1.00;0.40;;;;;;;5.73;100.00;99834.94;10406007;28;20106;-72
2024/01/03 08:05:35;;;;;;;1.98;0.70;;;;;;;5.81;99.55;99821.03;10373678;28;20571;-72
2024/01/03 08:10:36;;;;;;;2.38;0.80;;;;;;;6.29;99.28;99902.41;10396419;28;20437;-73
2024/01/03 08:15:37;;;;;;;1.45;0.75;;;;;;;5.93;96.30;99847.03;10412191;28;20043;-74
2024/01/03 08:20:38;;;;;;;0.95;0.57;;;;;;;5.99;95.09;99877.25;10407082;28;20049;-73
2024/01/03 08:25:39;;;;;;;1.60;0.75;;;;;;;6.16;95.15;99905.44;10411614;28;20269;-70
2024/01/03 08:30:40;;;;;;;2.58;0.77;;;;;;;6.05;94.54;99924.09;10410919;28;20140;-73
2024/01/03 08:35:41;;;;;;;1.95;0.88;;;;;;;5.91;94.80;99919.31;10411213;28;20049;-73
2024/01/03 08:40:42;;;;;;;8.27;0.77;;;;;;;5.79;95.47;99923.94;10405289;28;20045;-73
2024/01/03 08:45:43;;;;;;;2.42;1.00;;;;;;;5.81;94.85;99924.63;10404752;28;20042;-75
2024/01/03 08:50:44;;;;;;;2.22;0.88;;;;;;;5.90;94.30;99944.84;10383523;28;20444;-73
2024/01/03 08:55:44;;;;;;;3.90;1.30;;;;;;;5.82;94.25;99928.94;10378250;28;20046;-74
2024/01/03 09:00:45;;;;;;;2.15;0.80;;;;;;;5.91;94.35;99933.31;10377174;28;20413;-73
2024/01/03 09:05:46;;;;;;;4.03;0.98;;;;;;;5.92;94.39;99928.88;10379430;28;20048;-74
2024/01/03 09:10:48;;;;;;;3.30;1.30;;;;;;;5.96;94.23;99916.28;10392716;28;20385;-74
2024/01/03 09:15:49;;;;;;;3.60;1.40;;;;;;;5.67;94.04;99843.44;10377996;28;20128;-74
2024/01/03 09:20:50;;;;;;;6.40;1.40;;;;;;;6.29;93.06;99909.50;10385594;28;20050;-72
2024/01/03 09:25:52;;;;;;;4.65;1.50;;;;;;;6.42;92.97;99909.94;10392721;28;20497;-72
2024/01/03 09:30:52;;;;;;;2.63;0.90;;;;;;;6.55;91.87;99922.75;10377122;28;20060;-73
2024/01/03 09:35:54;;;;;;;2.40;1.20;;;;;;;6.30;91.73;99877.69;10377611;28;20062;-73
2024/01/03 09:40:57;;;;;;;6.68;1.20;;;;;;;6.29;91.15;99876.03;10395641;28;20098;-73
2024/01/03 09:45:58;;;;;;;4.13;1.17;;;;;;;6.62;90.88;99922.00;10393019;28;20505;-72
2024/01/03 09:51:01;;;;;;;3.28;0.80;;;;;;;6.08;90.32;99825.41;10396084;28;20637;-72
2024/01/03 09:56:02;;;;;;;2.67;1.17;;;;;;;6.70;90.89;99894.00;10398899;28;20102;-72
2024/01/03 10:01:04;;;;;;;4.95;1.20;;;;;;;6.72;90.37;99884.13;10400807;28;20041;-71
2024/01/03 10:06:13;;;;;;;6.80;1.67;;;;;;;6.74;90.28;99856.59;10401769;28;20401;-73
2024/01/03 10:11:21;;;;;;;2.30;1.05;;;;;;;7.58;88.67;99897.28;10393380;28;20065;-71
2024/01/03 10:16:27;;;;;;;4.30;1.33;;;;;;;7.89;87.40;99900.19;10396605;28;20091;-73
2024/01/03 10:21:28;;;;;;;2.38;1.17;;;;;;;7.92;86.28;99856.72;10411081;28;20053;-71
2024/01/03 10:26:29;;;;;;;2.38;1.00;;;;;;;7.51;85.24;99817.81;10408358;28;20482;-72
2024/01/03 10:44:22;;;;;;;3.13;1.33;;;;;;;8.47;79.34;99898.50;10366470;28;20460;-72
2024/01/03 10:49:23;;;;;;;2.45;0.90;;;;;;;8.46;79.33;99886.25;10315563;28;20050;-73
2024/01/03 10:54:27;;;;;;;3.38;1.52;;;;;;;8.45;79.77;99889.88;10305633;28;20083;-73
2024/01/03 10:59:37;;;;;;;2.20;1.30;;;;;;;8.48;79.01;99886.91;10305743;28;20057;-70
2024/01/03 11:04:48;;;;;;;2.72;1.30;;;;;;;8.42;79.31;99895.50;10297929;28;20503;-71
2024/01/03 11:09:49;;;;;;;4.60;2.17;;;;;;;8.30;79.54;99883.56;10323883;28;20533;-71
2024/01/03 11:14:50;;;;;;;3.92;1.80;;;;;;;8.27;79.44;99905.06;10306533;28;20047;-72
2024/01/03 11:20:07;;;;;;;4.03;1.40;;;;;;;8.26;78.92;99922.78;10312478;28;20070;-72
2024/01/03 11:25:08;;;;;;;2.25;1.10;;;;;;;8.13;79.95;99915.28;10299276;28;20129;-71
2024/01/03 11:30:41;;;;;;;2.78;1.40;;;;;;;8.35;80.38;99920.97;10284587;28;20468;-71
2024/01/03 11:35:48;;;;;;;2.38;1.40;;;;;;;8.43;80.48;99934.22;10293620;28;20071;-74
2024/01/03 11:40:50;;;;;;;2.80;1.30;;;;;;;8.48;81.11;99933.75;10318430;28;20418;-71
2024/01/03 11:45:51;;;;;;;3.22;1.35;;;;;;;8.41;81.67;99942.34;10276440;28;20126;-71
2024/01/03 11:50:52;;;;;;;3.35;1.50;;;;;;;8.07;81.83;99891.31;10278502;28;20047;-69
2024/01/03 11:55:54;;;;;;;3.13;1.30;;;;;;;8.22;83.07;99929.38;10279229;28;20050;-69
2024/01/03 12:01:05;;;;;;;3.55;1.30;;;;;;;8.15;82.87;99937.13;10276948;28;20522;-69
2024/01/03 12:06:08;;;;;;;4.72;1.40;;;;;;;8.02;83.24;99926.19;10280276;28;20050;-70
2024/01/03 12:11:09;;;;;;;3.75;1.35;;;;;;;8.00;82.89;99933.47;10275818;28;20043;-70
2024/01/03 12:16:09;;;;;;;2.65;0.98;;;;;;;7.69;81.22;99889.09;10280931;28;20035;-69
2024/01/03 12:21:11;;;;;;;2.10;1.10;;;;;;;7.94;79.09;99934.94;10271696;28;20130;-70
2024/01/03 12:26:12;;;;;;;4.55;1.38;;;;;;;7.88;78.65;99935.56;10279281;28;20455;-69
2024/01/03 12:31:17;;;;;;;2.83;1.33;;;;;;;7.74;78.32;99931.72;10274009;28;20035;-71
2024/01/03 12:36:18;;;;;;;3.78;2.00;;;;;;;7.61;79.53;99935.81;10274488;28;20039;-70
2024/01/03 12:41:19;;;;;;;5.47;1.85;;;;;;;7.52;80.27;99948.16;10279509;28;20121;-70
2024/01/03 12:46:20;;;;;;;4.03;2.03;;;;;;;6.96;80.88;99871.06;10273721;28;20043;-71
2024/01/03 12:51:21;;;;;;;3.88;2.00;;;;;;;7.49;81.06;99959.03;10277991;28;20050;-71
2024/01/03 12:56:22;;;;;;;2.83;1.52;;;;;;;7.46;81.01;99962.00;10277983;28;20402;-70
2024/01/03 13:01:23;;;;;;;7.25;1.20;;;;;;;7.48;80.50;99970.59;10273538;28;20042;-69
2024/01/03 13:06:23;;;;;;;3.63;1.38;;;;;;;7.39;80.12;99963.59;10271732;28;20043;-69
2024/01/03 13:11:40;;;;;;;3.00;1.17;;;;;;;7.39;79.77;99980.31;10271109;28;20055;-70
2024/01/03 13:16:42;;;;;;;1.95;0.90;;;;;;;7.24;80.75;99980.03;10292512;28;20141;-69
2024/01/03 13:21:43;;;;;;;2.28;1.13;;;;;;;7.05;80.89;99985.50;10292241;28;20141;-69
2024/01/03 13:26:44;;;;;;;2.85;1.17;;;;;;;6.85;81.78;99977.78;10285601;28;20200;-69
2024/01/03 13:31:45;;;;;;;2.85;1.08;;;;;;;6.71;81.56;100002.06;10277945;28;20105;-69
2024/01/03 13:36:46;;;;;;;3.83;1.33;;;;;;;6.45;82.83;99990.59;10278018;28;20054;-70
2024/01/03 13:41:47;;;;;;;3.30;1.00;;;;;;;6.30;82.99;100011.41;10277381;28;20065;-69
2024/01/03 13:46:48;;;;;;;3.22;1.15;;;;;;;5.98;83.89;99991.56;10269024;28;20039;-69
2024/01/03 13:51:51;;;;;;;7.38;1.55;;;;;;;5.75;83.71;99958.66;10268795;28;20081;-69
2024/01/03 13:56:52;;;;;;;6.90;1.50;;;;;;;5.65;83.60;99954.28;10266045;28;20043;-74
2024/01/03 14:01:53;;;;;;;2.47;1.30;;;;;;;5.88;83.31;100007.41;10260391;28;20046;-72
2024/01/03 14:06:53;;;;;;;3.20;1.27;;;;;;;5.51;84.07;99961.81;10279703;28;20046;-77
2024/01/03 14:11:54;;;;;;;5.63;1.50;;;;;;;5.69;84.64;100016.25;10271474;28;20046;-77
2024/01/03 14:17:00;;;;;;;3.22;0.95;;;;;;;5.43;84.99;99987.06;10290549;28;20634;-75
2024/01/03 14:22:03;;;;;;;6.38;1.55;;;;;;;5.41;85.75;100015.34;10275952;28;20101;-74
2024/01/03 14:27:03;;;;;;;8.65;2.50;;;;;;;5.13;86.51;100008.34;10277114;28;20138;-74
2024/01/03 14:32:04;;;;;;;4.43;2.40;;;;;;;5.19;87.04;100034.94;10283912;28;20455;-74
2024/01/03 14:37:07;;;;;;;7.05;2.97;;;;;;;5.09;87.57;100023.63;10286348;28;20035;-72
2024/01/03 14:42:11;;;;;;;7.43;3.28;;;;;;;5.03;88.22;100032.06;10272909;28;20091;-74
2024/01/03 14:47:12;;;;;;;7.20;3.00;;;;;;;4.93;87.98;100032.06;10275216;28;20145;-72
2024/01/03 14:52:12;;;;;;;6.18;2.78;;;;;;;4.87;88.57;100034.41;10267546;28;20476;-73
2024/01/03 14:57:13;;;;;;;4.38;2.05;;;;;;;4.85;88.64;100036.38;10280874;28;20057;-74
2024/01/03 15:02:14;;;;;;;7.45;2.30;;;;;;;4.69;88.48;100052.69;10276408;28;20051;-75
2024/01/03 15:07:16;;;;;;;4.05;2.00;;;;;;;4.38;88.97;100042.28;10291527;28;20498;-73
2024/01/03 15:12:18;;;;;;;10.63;2.50;;;;;;;4.33;88.89;100044.47;10289184;28;20042;-74
2024/01/03 15:17:19;;;;;;;11.57;4.53;;;;;;;4.11;89.40;100027.13;10265902;28;20047;-73
2024/01/03 15:22:20;;;;;;;12.57;4.63;;;;;;;4.06;89.78;100030.16;10269720;28;20414;-74
2024/01/03 15:27:21;;;;;;;7.18;2.58;;;;;;;3.84;89.95;100022.47;10257961;28;20043;-74
2024/01/03 15:32:22;;;;;;;6.72;2.75;;;;;;;3.62;90.40;99998.06;10256543;29;20047;-73
2024/01/03 15:37:23;;;;;;;20.55;3.47;;;;;;;3.91;90.52;100046.41;10257473;29;20513;-75
2024/01/03 15:42:24;;;;;;;5.43;2.30;;;;;;;3.98;91.11;100051.03;10276462;28;20606;-73
2024/01/03 15:47:25;;;;;;;13.00;2.80;;;;;;;3.94;90.91;100028.59;10289744;28;20042;-73
2024/01/03 15:52:27;;;;;;;5.40;2.50;;;;;;;4.01;91.11;100035.00;10280795;28;20043;-75
2024/01/03 15:57:28;;;;;;;6.28;2.72;;;;;;;4.06;90.88;100038.03;10281873;28;20049;-77
2024/01/03 16:02:29;;;;;;;11.02;3.22;;;;;;;4.02;90.66;100027.94;10284733;28;20043;-76
2024/01/03 16:07:31;;;;;;;8.40;3.40;;;;;;;3.71;91.26;99990.31;10280603;28;20047;-74
2024/01/03 16:12:32;;;;;;;4.80;2.72;;;;;;;3.99;90.99;100038.72;10285727;28;20186;-76
2024/01/03 16:17:32;;;;;;;5.05;2.70;;;;;;;3.76;91.25;100019.66;10273082;28;20194;-74
2024/01/03 16:22:33;;;;;;;10.13;2.20;;;;;;;3.86;91.09;100023.19;10287023;28;20572;-73
2024/01/03 16:27:34;;;;;;;6.10;2.30;;;;;;;3.91;91.39;100004.38;10282904;28;20043;-74
2024/01/03 16:32:35;;;;;;;6.38;2.22;;;;;;;4.11;90.77;100024.50;10288021;28;20034;-76
2024/01/03 16:37:35;;;;;;;5.10;2.58;;;;;;;3.84;91.00;99981.25;10285108;28;20054;-76
2024/01/03 16:42:40;;;;;;;4.70;2.42;;;;;;;4.09;90.85;100015.91;10275537;28;20105;-79
2024/01/03 16:47:43;;;;;;;7.18;2.55;;;;;;;4.19;91.26;100031.69;10275291;28;20031;-77
2024/01/03 16:52:44;;;;;;;11.35;2.88;;;;;;;4.08;91.25;100024.78;10292313;28;20043;-76
2024/01/03 16:57:45;;;;;;;8.18;2.55;;;;;;;3.65;91.05;99961.03;10293031;28;20046;-79
2024/01/03 17:02:46;;;;;;;7.72;3.25;;;;;;;3.79;91.35;100020.22;10292452;28;20058;-79
2024/01/03 17:07:47;;;;;;;13.13;3.58;;;;;;;3.18;91.63;99955.41;10293757;28;20526;-79
2024/01/03 17:12:49;;;;;;;7.93;3.80;;;;;;;3.29;91.81;100035.91;10291399;28;20050;-77
2024/01/03 17:17:50;;;;;;;12.77;4.07;;;;;;;3.10;92.11;100048.88;10292312;28;20047;-77
2024/01/03 17:22:51;;;;;;;8.98;3.70;;;;;;;2.64;92.68;99987.91;10292354;28;20105;-77
2024/01/03 17:27:51;;;;;;;7.00;3.65;;;;;;;3.08;93.54;100049.03;10293838;28;20081;-76
2024/01/03 17:32:53;;;;;;;5.00;2.40;;;;;;;3.26;93.11;100049.28;10291546;28;20491;-74
2024/01/03 17:37:56;;;;;;;6.65;2.38;;;;;;;3.43;92.86;100046.03;10291851;28;20482;-74
2024/01/03 17:42:57;;;;;;;4.57;2.38;;;;;;;3.54;92.32;100042.53;10289992;28;20069;-74
2024/01/03 17:47:58;;;;;;;6.55;2.25;;;;;;;3.55;92.97;100052.06;10292256;28;20050;-74
2024/01/03 17:52:59;;;;;;;4.70;2.53;;;;;;;3.52;92.74;100041.81;10292307;28;20035;-74
2024/01/03 17:58:00;;;;;;;7.03;3.22;;;;;;;3.55;92.40;100038.94;10292756;28;20043;-74
2024/01/03 18:03:01;;;;;;;30.60;3.28;;;;;;;3.64;92.53;100039.94;10291288;28;20429;-75
2024/01/03 18:08:02;;;;;;;8.98;3.00;;;;;;;3.65;92.96;100049.50;10292077;28;20143;-74
2024/01/03 18:13:04;;;;;;;7.00;3.00;;;;;;;3.32;92.29;99995.41;10274658;28;20094;-75
2024/01/03 18:18:04;;;;;;;11.45;3.35;;;;;;;3.34;92.76;100020.56;10252036;29;20097;-74
2024/01/03 18:23:06;;;;;;;7.57;2.90;;;;;;;3.26;92.84;100040.53;10289136;28;20561;-74
2024/01/03 18:28:06;;;;;;;8.15;3.47;;;;;;;3.04;93.08;100026.59;10291724;28;20039;-75
2024/01/03 18:33:07;;;;;;;6.95;3.83;;;;;;;3.04;93.86;100039.72;10290779;28;20053;-75
2024/01/03 18:38:08;;;;;;;11.63;4.32;;;;;;;2.88;93.64;100037.53;10290925;28;20564;-75
2024/01/03 18:43:09;;;;;;;13.73;4.18;;;;;;;2.39;93.92;99988.25;10291698;28;20530;-75
2024/01/03 18:48:10;;;;;;;10.98;4.25;;;;;;;2.57;94.12;100046.22;10289566;28;20128;-74
2024/01/03 18:53:11;;;;;;;10.95;4.70;;;;;;;2.54;94.42;100035.97;10295631;28;20039;-74
2024/01/03 18:58:12;;;;;;;26.60;5.68;;;;;;;2.58;94.53;100053.16;10299759;28;20039;-75
2024/01/03 19:03:12;;;;;;;16.77;4.03;;;;;;;1.98;94.65;99963.59;10298667;28;20464;-75
2024/01/03 19:08:13;;;;;;;10.73;2.90;;;;;;;2.55;95.10;100054.22;10298371;28;20062;-75
2024/01/03 19:13:14;;;;;;;4.35;2.35;;;;;;;2.51;94.96;100024.81;10299353;28;20521;-75
2024/01/03 19:18:16;;;;;;;4.70;2.28;;;;;;;2.88;94.67;100055.91;10299596;28;20039;-75
2024/01/03 19:23:17;;;;;;;5.93;2.63;;;;;;;3.03;94.59;100056.44;10297038;28;20078;-75
2024/01/03 19:28:18;;;;;;;4.13;2.22;;;;;;;3.05;94.53;100037.91;10297534;28;20096;-75
2024/01/03 19:33:19;;;;;;;5.20;2.70;;;;;;;3.09;94.40;100031.47;10297885;28;20122;-75
2024/01/03 19:38:20;;;;;;;6.95;2.20;;;;;;;3.06;94.29;100027.31;10297308;28;20098;-76
2024/01/03 19:43:22;;;;;;;4.03;2.40;;;;;;;3.06;94.41;100027.31;10296644;28;20574;-76
2024/01/03 19:48:23;;;;;;;6.82;2.38;;;;;;;2.95;94.47;100029.97;10296899;28;20034;-76
2024/01/03 19:53:24;;;;;;;5.80;2.10;;;;;;;2.71;94.47;99996.09;10295506;28;20478;-75
2024/01/03 19:58:25;;;;;;;4.55;2.63;;;;;;;2.58;94.43;99992.84;10287763;28;20042;-72
2024/01/03 20:03:26;;;;;;;6.20;3.00;;;;;;;2.54;94.95;100000.09;10296491;28;20149;-73
2024/01/03 20:08:27;;;;;;;8.15;3.50;;;;;;;2.12;95.36;99942.34;10295486;28;20066;-73
2024/01/03 20:13:27;;;;;;;6.53;3.33;;;;;;;2.51;95.27;100016.09;10296198;28;20039;-73
2024/01/03 20:18:28;;;;;;;7.13;3.28;;;;;;;2.32;95.81;99994.94;10294519;28;20138;-73
2024/01/03 20:23:29;;;;;;;7.05;3.65;;;;;;;2.18;95.77;99983.75;10278323;28;20569;-73
2024/01/03 20:28:30;;;;;;;7.70;4.15;;;;;;;1.99;96.26;99941.66;10281617;28;20407;-74
2024/01/03 20:33:31;;;;;;;8.25;4.25;;;;;;;2.23;96.17;99978.16;10273152;28;20054;-74
2024/01/03 20:38:34;;;;;;;12.60;4.88;;;;;;;2.35;96.37;99985.03;10278240;28;20078;-73
2024/01/03 20:43:35;;;;;;;9.65;4.65;;;;;;;1.96;96.55;99913.09;10274430;28;20046;-74
2024/01/03 20:48:36;;;;;;;18.20;4.65;;;;;;;1.94;97.00;99913.22;10256606;28;20055;-74
2024/01/03 20:53:36;;;;;;;10.80;4.18;;;;;;;2.36;97.54;99976.22;10276981;28;20035;-74
2024/01/03 20:58:38;;;;;;;6.68;3.90;;;;;;;2.33;97.35;99981.69;10274562;28;20042;-74
2024/01/03 21:03:40;;;;;;;8.85;4.32;;;;;;;2.32;97.31;99958.25;10272710;28;20043;-74
2024/01/03 21:08:41;;;;;;;6.32;4.15;;;;;;;1.76;97.40;99863.13;10274248;28;20518;-74
2024/01/03 21:13:42;;;;;;;9.70;4.00;;;;;;;2.33;97.43;99945.00;10271659;28;20064;-74
2024/01/03 21:18:43;;;;;;;13.75;5.20;;;;;;;2.23;97.71;99913.47;10272858;28;20035;-74
2024/01/03 21:23:43;;;;;;;10.43;4.63;;;;;;;2.05;97.46;99904.50;10269206;28;20141;-74
2024/01/03 21:28:45;;;;;;;14.10;4.82;;;;;;;1.89;98.15;99889.19;10272817;28;20130;-74
2024/01/03 21:33:45;;;;;;;8.07;4.05;;;;;;;1.73;98.36;99873.03;10267720;28;20043;-74
2024/01/03 21:38:46;;;;;;;8.15;4.43;;;;;;;1.87;98.58;99898.94;10272296;28;20038;-74
2024/01/03 21:43:47;;;;;;;9.10;4.18;;;;;;;1.85;98.59;99882.50;10268363;28;20059;-74
2024/01/03 21:48:48;;;;;;;6.82;4.20;;;;;;;1.88;99.05;99882.28;10268134;28;20143;-74
2024/01/03 21:53:48;;;;;;;13.02;4.60;;;;;;;1.76;98.42;99862.31;10273416;28;20027;-74
2024/01/03 21:58:49;;;;;;;14.65;5.40;;;;;;;1.68;99.32;99876.03;10257903;28;20071;-74
2024/01/03 22:03:50;;;;;;;9.40;5.18;;;;;;;1.26;98.80;99820.91;10251131;29;20042;-74
2024/01/03 22:08:51;;;;;;;15.13;4.88;;;;;;;1.37;98.84;99856.66;10252030;28;20151;-74
2024/01/03 22:13:52;;;;;;;11.35;5.13;;;;;;;1.27;99.21;99855.75;10251906;29;20097;-74
2024/01/03 22:18:52;;;;;;;9.82;4.63;;;;;;;1.17;98.95;99849.56;10250633;29;20462;-74
2024/01/03 22:23:53;;;;;;;14.25;4.38;;;;;;;1.14;99.27;99833.16;10251316;29;20427;-74
2024/01/03 22:28:54;;;;;;;9.05;4.30;;;;;;;0.94;99.23;99762.44;10251903;28;20519;-74
2024/01/03 22:33:55;;;;;;;11.48;4.97;;;;;;;1.46;99.69;99821.09;10250261;29;20535;-74
2024/01/03 22:38:58;;;;;;;31.60;5.50;;;;;;;1.52;100.00;99818.81;10251334;28;20039;-75
2024/01/03 22:43:59;;;;;;;13.00;6.17;;;;;;;1.34;99.54;99789.69;10250040;29;20055;-75
2024/01/03 22:49:00;;;;;;;16.23;6.70;;;;;;;1.41;99.34;99799.69;10251487;28;20138;-75
2024/01/03 22:54:06;;;;;;;15.18;8.23;;;;;;;1.43;98.90;99837.03;10251620;29;20423;-75
2024/01/03 22:59:07;;;;;;;17.65;10.55;;;;;;;1.30;100.00;99822.31;10250640;28;20074;-75
2024/01/03 23:04:09;;;;;;;13.65;9.05;;;;;;;1.13;100.00;99794.03;10251150;28;20127;-76
2024/01/03 23:09:10;;;;;;;17.27;8.00;;;;;;;1.00;100.00;99770.63;10250616;29;20054;-74
2024/01/03 23:14:11;;;;;;;13.93;7.13;;;;;;;1.41;100.00;99812.75;10250644;29;20380;-74
2024/01/03 23:19:12;;;;;;;13.73;7.15;;;;;;;1.33;100.00;99813.41;10251759;29;20047;-75
2024/01/03 23:24:12;;;;;;;28.25;6.47;;;;;;;1.18;100.00;99793.69;10249989;29;20051;-75
2024/01/03 23:29:15;;;;;;;12.02;6.80;;;;;;;1.10;100.00;99807.34;10250166;29;20036;-74
2024/01/03 23:34:16;;;;;;;14.95;5.70;;;;;;;1.01;100.00;99774.06;10250191;29;20039;-74
2024/01/03 23:39:17;;;;;;;10.40;6.22;;;;;;;1.21;100.00;99785.59;10254463;28;20069;-75